Cerrillos, New Mexico
Current Conditions -  °F | °C
As of 2:53 AM on Saturday 25 Oct 2014 (Local Time) from KSAF Reporting Station
Clear Clear  
Wind Chill: 43°   Ceiling: Unl
Heat Index: 47°   Visibility: 10mi
Dew Point: 22°   Wind: 8mph
Humidity: 37%   Direction: 20°NNE
Pressure: 30.33"   Gusts: NA
Location:  35.44°N, 106.13°W
Report Text: KSAF 250853Z AUTO 02007KT 10SM CLR 08/M06 A3033 RMK AO2 SLP189 T00831056 51001
Loading
Personal Weather Stations






























Interactive Weather Map
Tropical Storm Tracking
New forecast layout! Learn more

10-Day Weather Forecast

Advertisements
Track Severe Weather on mobile